Time;durP1;ratioP1;P1;durP2;ratioP2;P2;SDS_P1;SDS_P2;PMS_P1;PMS_P2;Temp;Humidity;BMP_temperature;BMP_pressure;BME280_temperature;BME280_humidity;BME280_pressure;Samples;Min_cycle;Max_cycle;Signal;HPM_P1;HPM_P2
2022/11/09 00:08:37;;;;;;;4.13;1.30;;;;;;;12.07;88.50;99960.31;20756299;28;20413;-66
2022/11/09 00:18:59;;;;;;;4.22;1.63;;;;;;;12.05;88.87;99952.59;20752377;28;20049;-66
2022/11/09 00:29:21;;;;;;;9.20;1.90;;;;;;;11.99;89.47;99949.66;20739110;28;20144;-66
2022/11/09 00:39:42;;;;;;;6.28;1.30;;;;;;;12.11;89.16;99946.00;20754675;28;20045;-66
2022/11/09 00:50:05;;;;;;;5.20;1.52;;;;;;;12.06;89.60;99932.53;20750713;28;20504;-66
2022/11/09 01:00:26;;;;;;;5.20;1.45;;;;;;;12.03;90.07;99938.00;20755807;28;20201;-66
2022/11/09 01:10:48;;;;;;;5.88;1.45;;;;;;;12.16;89.39;99944.66;20754535;28;20042;-66
2022/11/09 01:21:12;;;;;;;2.78;1.40;;;;;;;12.03;89.52;99940.63;20732269;28;20045;-65
2022/11/09 01:31:34;;;;;;;5.80;1.50;;;;;;;12.17;89.57;99942.91;20755291;28;20038;-65
2022/11/09 01:41:56;;;;;;;5.78;1.50;;;;;;;12.18;89.78;99941.94;20769910;28;20068;-66
2022/11/09 01:52:30;;;;;;;5.03;1.70;;;;;;;12.12;90.11;99937.22;20743613;28;20046;-65
2022/11/09 02:02:59;;;;;;;8.55;1.55;;;;;;;12.15;90.02;99932.56;20747975;28;20390;-65
2022/11/09 02:13:23;;;;;;;3.33;1.42;;;;;;;12.04;91.14;99924.00;20755445;28;20041;-65
2022/11/09 02:23:45;;;;;;;7.25;1.58;;;;;;;12.35;89.83;99923.03;20766943;28;20112;-66
2022/11/09 02:34:11;;;;;;;10.32;1.60;;;;;;;12.60;89.29;99929.44;20762087;28;20045;-66
2022/11/09 02:44:39;;;;;;;4.20;1.35;;;;;;;12.67;88.50;99922.72;20767162;28;20465;-66
2022/11/09 02:55:01;;;;;;;7.10;1.95;;;;;;;12.78;88.01;99917.38;20757371;28;20050;-65
2022/11/09 03:05:23;;;;;;;5.93;1.70;;;;;;;12.63;88.97;99892.59;20759497;28;20045;-65
2022/11/09 03:15:45;;;;;;;4.63;1.35;;;;;;;12.65;89.00;99908.97;20763160;28;20048;-64
2022/11/09 03:26:07;;;;;;;3.53;1.50;;;;;;;12.65;89.01;99916.81;20743304;28;20046;-66
2022/11/09 03:36:28;;;;;;;3.08;1.50;;;;;;;12.55;89.29;99931.63;20752229;28;20408;-66
2022/11/09 03:46:50;;;;;;;2.85;1.40;;;;;;;12.69;87.91;99935.66;20738644;28;20042;-64
2022/11/09 03:57:12;;;;;;;7.30;1.73;;;;;;;12.64;88.15;99941.31;20754725;28;20420;-62
2022/11/09 04:07:34;;;;;;;7.30;1.77;;;;;;;12.62;88.04;99943.22;20756462;28;20045;-62
2022/11/09 04:17:58;;;;;;;5.18;1.27;;;;;;;12.50;89.03;99935.59;20756283;28;20073;-62
2022/11/09 04:28:19;;;;;;;5.70;1.20;;;;;;;12.49;89.25;99947.84;20753176;28;20350;-62
2022/11/09 04:38:41;;;;;;;3.40;1.20;;;;;;;12.49;89.29;99926.94;20734283;28;20042;-62
2022/11/09 04:49:03;;;;;;;5.60;1.70;;;;;;;12.46;90.08;99959.53;20743651;28;20050;-62
2022/11/09 04:59:25;;;;;;;5.82;1.75;;;;;;;12.52;89.92;99937.09;20750331;28;20049;-62
2022/11/09 05:09:47;;;;;;;6.25;1.58;;;;;;;12.63;89.89;99960.56;20737883;28;20127;-62
2022/11/09 05:20:09;;;;;;;5.60;1.40;;;;;;;12.49;91.38;99978.38;20767439;28;20080;-62
2022/11/09 05:30:31;;;;;;;6.20;1.55;;;;;;;12.55;91.18;99963.00;20761660;28;20046;-62
2022/11/09 05:40:53;;;;;;;10.68;1.60;;;;;;;12.46;90.78;99968.19;20766432;28;20045;-62
2022/11/09 05:51:15;;;;;;;4.70;2.10;;;;;;;12.30;91.44;99961.78;20752665;28;20046;-61
2022/11/09 06:01:37;;;;;;;4.00;1.30;;;;;;;12.39;89.96;99976.69;20785448;22;20053;-64
2022/11/09 06:11:59;;;;;;;6.00;1.40;;;;;;;12.35;89.48;99985.75;20765995;28;20064;-64
2022/11/09 06:22:20;;;;;;;7.38;1.40;;;;;;;12.37;89.16;99994.31;20762061;28;20045;-67
2022/11/09 06:32:42;;;;;;;6.72;1.48;;;;;;;12.30;89.16;100012.25;20764156;28;20049;-64
2022/11/09 06:43:05;;;;;;;4.68;1.40;;;;;;;12.39;88.61;100016.72;20764729;28;20720;-63
2022/11/09 06:53:28;;;;;;;5.57;1.50;;;;;;;12.33;88.45;100024.25;20764823;28;20409;-63
2022/11/09 07:03:50;;;;;;;4.60;1.40;;;;;;;12.31;88.13;100032.22;20767396;28;20045;-62
2022/11/09 07:14:12;;;;;;;;;;;;;;;12.22;87.86;100050.47;20769134;28;20054;-63
2022/11/09 07:24:33;;;;;;;4.78;1.15;;;;;;;12.16;87.89;100061.44;20760009;28;20299;-63
2022/11/09 07:34:55;;;;;;;6.88;1.38;;;;;;;11.96;88.80;100065.69;20762543;28;20509;-64
2022/11/09 07:45:17;;;;;;;;;;;;;;;11.91;89.15;100074.88;20750075;28;20046;-63
2022/11/09 07:55:40;;;;;;;8.88;2.05;;;;;;;12.02;88.43;100077.41;20743182;28;19922;-63
2022/11/09 08:06:01;;;;;;;9.10;1.60;;;;;;;12.06;88.01;100084.06;20753670;28;20042;-62
2022/11/09 08:16:24;;;;;;;10.63;1.50;;;;;;;12.15;87.76;100078.88;20766565;28;20371;-62
2022/11/09 08:26:45;;;;;;;10.13;1.40;;;;;;;12.18;87.79;100078.63;20752358;28;20373;-64
2022/11/09 08:37:07;;;;;;;5.65;1.30;;;;;;;12.30;87.60;100082.00;20760398;28;20420;-62
2022/11/09 08:47:29;;;;;;;4.72;1.20;;;;;;;12.34;87.25;100099.09;20768506;28;20077;-62
2022/11/09 08:57:56;;;;;;;10.43;1.50;;;;;;;12.41;86.89;100105.47;20778125;28;20045;-63
2022/11/09 09:08:21;;;;;;;10.85;1.63;;;;;;;12.30;86.86;100108.16;20753124;28;20049;-63
2022/11/09 09:18:47;;;;;;;6.65;1.30;;;;;;;12.46;86.75;100122.41;20772560;28;20408;-63
2022/11/09 09:29:10;;;;;;;8.02;1.52;;;;;;;12.63;86.39;100129.69;20822015;28;20065;-63
2022/11/09 09:39:32;;;;;;;7.50;1.50;;;;;;;12.65;86.04;100136.47;20817296;28;20158;-63
2022/11/09 09:50:03;;;;;;;7.40;1.33;;;;;;;12.71;85.84;100143.78;20764675;28;20413;-63
2022/11/09 10:00:27;;;;;;;12.70;1.90;;;;;;;12.68;85.64;100157.09;20780327;28;20050;-63
2022/11/09 10:11:11;;;;;;;9.90;1.83;;;;;;;13.01;84.31;100164.75;20865171;28;20045;-63
2022/11/09 10:21:43;;;;;;;10.65;2.00;;;;;;;13.06;83.43;100165.22;20860386;28;20056;-63
2022/11/09 10:32:17;;;;;;;11.35;1.50;;;;;;;13.16;82.24;100152.97;20842523;28;20552;-64
2022/11/09 10:42:44;;;;;;;10.30;1.77;;;;;;;13.19;81.99;100147.50;20763835;28;20091;-63
2022/11/09 10:53:29;;;;;;;6.28;1.42;;;;;;;13.16;81.76;100145.13;20784478;28;20046;-63
2022/11/09 11:03:54;;;;;;;6.15;1.50;;;;;;;12.78;80.41;100152.78;20778495;28;20036;-63
2022/11/09 11:14:28;;;;;;;10.10;1.60;;;;;;;12.77;80.98;100145.88;20821929;28;20152;-63
2022/11/09 11:25:00;;;;;;;8.40;1.65;;;;;;;12.95;79.69;100146.13;20733896;28;20401;-65
2022/11/09 11:35:29;;;;;;;5.53;1.38;;;;;;;13.14;78.66;100144.44;20762075;28;20071;-65
2022/11/09 11:46:14;;;;;;;11.02;1.80;;;;;;;13.18;77.00;100145.84;20760500;28;20050;-64
2022/11/09 11:56:45;;;;;;;8.45;1.38;;;;;;;13.44;76.28;100135.72;20759225;28;20095;-64
2022/11/09 12:07:26;;;;;;;;;;;;;;;13.45;75.59;100132.97;20789225;23;20061;-70
2022/11/09 12:18:00;;;;;;;7.20;1.47;;;;;;;13.41;75.67;100136.81;20831224;28;20026;-69
2022/11/09 12:28:59;;;;;;;6.10;1.33;;;;;;;13.37;76.11;100138.06;20869358;28;20690;-70
2022/11/09 12:39:30;;;;;;;6.00;1.50;;;;;;;13.58;75.32;100131.78;20853590;28;20037;-70
2022/11/09 12:49:54;;;;;;;11.23;1.30;;;;;;;13.71;73.45;100139.38;20859634;28;20076;-71
2022/11/09 13:00:34;;;;;;;5.97;1.15;;;;;;;13.44;74.10;100147.03;20853431;28;20060;-70
2022/11/09 13:11:21;;;;;;;6.57;1.20;;;;;;;13.38;73.18;100147.56;20873026;28;20049;-72
2022/11/09 13:21:43;;;;;;;8.13;1.30;;;;;;;13.46;72.46;100139.88;20846225;28;20045;-70
2022/11/09 13:32:11;;;;;;;9.10;1.00;;;;;;;13.54;72.53;100147.88;20866260;28;20063;-70
2022/11/09 13:42:35;;;;;;;5.50;1.05;;;;;;;13.60;73.32;100153.44;20864511;28;20048;-71
2022/11/09 13:52:59;;;;;;;5.40;1.20;;;;;;;13.50;73.33;100146.50;20865668;28;20041;-71
2022/11/09 14:03:28;;;;;;;4.55;1.35;;;;;;;13.33;73.92;100149.75;20864439;28;20041;-71
2022/11/09 14:14:15;;;;;;;7.13;1.50;;;;;;;13.31;74.32;100175.22;20855308;28;20147;-70
2022/11/09 14:24:37;;;;;;;7.43;1.00;;;;;;;13.31;74.32;100170.00;20861048;28;20455;-71
2022/11/09 14:35:23;;;;;;;6.35;1.30;;;;;;;13.22;74.20;100178.66;20865088;28;20503;-70
2022/11/09 14:45:55;;;;;;;4.30;1.08;;;;;;;13.16;74.25;100189.63;20878138;28;20041;-69
2022/11/09 14:56:19;;;;;;;5.20;0.93;;;;;;;12.98;76.28;100193.78;20843206;28;20068;-71
2022/11/09 15:07:02;;;;;;;6.18;1.25;;;;;;;12.97;75.37;100204.41;20851648;28;20066;-71
2022/11/09 15:17:26;;;;;;;4.72;1.13;;;;;;;12.90;75.26;100217.16;20853300;28;20052;-68
2022/11/09 15:28:10;;;;;;;8.00;1.10;;;;;;;12.72;80.34;100226.50;20853218;28;20037;-70
2022/11/09 15:38:38;;;;;;;8.85;1.40;;;;;;;11.85;89.37;100232.03;20857896;28;20037;-70
2022/11/09 15:49:25;;;;;;;5.45;1.40;;;;;;;11.91;91.50;100236.78;20844651;28;20407;-70
2022/11/09 15:59:48;;;;;;;6.68;1.27;;;;;;;12.14;85.19;100238.38;20863506;28;20419;-69
2022/11/09 16:10:13;;;;;;;5.97;1.40;;;;;;;12.00;82.69;100246.50;20875764;28;20653;-70
2022/11/09 16:20:34;;;;;;;6.63;1.30;;;;;;;12.00;81.22;100256.94;20856965;28;20537;-70
2022/11/09 16:30:56;;;;;;;5.38;1.23;;;;;;;12.00;81.24;100257.78;20865532;28;20049;-68
2022/11/09 16:41:19;;;;;;;6.28;1.30;;;;;;;12.06;81.66;100280.00;20870580;28;20048;-69
2022/11/09 16:51:41;;;;;;;7.90;1.13;;;;;;;12.16;82.19;100310.47;20865322;28;20519;-71
2022/11/09 17:02:03;;;;;;;8.70;1.33;;;;;;;11.99;83.08;100312.75;20852602;28;20081;-70
2022/11/09 17:12:25;;;;;;;8.70;1.55;;;;;;;12.00;83.78;100335.31;20851348;28;20202;-71
2022/11/09 17:22:47;;;;;;;4.43;0.90;;;;;;;11.39;89.85;100364.41;20863307;28;20503;-74
2022/11/09 17:33:09;;;;;;;7.70;1.23;;;;;;;11.18;94.88;100384.31;20843165;28;20240;-75
2022/11/09 17:43:31;;;;;;;;;;;;;;;10.64;100.00;100375.28;20877285;28;20053;-73
2022/11/09 17:53:53;;;;;;;7.18;1.40;;;;;;;10.49;100.00;100401.59;20851090;28;19925;-73
2022/11/09 18:04:15;;;;;;;;;;;;;;;10.50;100.00;100411.09;20869026;28;20092;-73
2022/11/09 18:14:37;;;;;;;8.37;1.10;;;;;;;10.53;100.00;100435.16;20851321;28;20005;-74
2022/11/09 18:24:58;;;;;;;;;;;;;;;10.46;100.00;100442.69;20865562;28;20446;-74
2022/11/09 18:35:20;;;;;;;6.63;1.73;;;;;;;10.27;100.00;100453.53;20874782;22;19921;-68
2022/11/09 18:45:42;;;;;;;;;;;;;;;10.14;100.00;100460.53;20911753;28;20287;-66
2022/11/09 18:56:16;;;;;;;5.33;1.43;;;;;;;10.22;100.00;100473.03;20972865;28;19930;-67
2022/11/09 19:06:38;;;;;;;6.13;1.77;;;;;;;10.18;100.00;100498.47;20987615;28;20048;-67
2022/11/09 19:17:00;;;;;;;5.03;1.60;;;;;;;10.27;100.00;100504.81;21004597;28;20238;-67
2022/11/09 19:27:23;;;;;;;;;;;;;;;10.22;100.00;100528.59;20986727;28;20048;-66
2022/11/09 19:37:45;;;;;;;5.88;2.03;;;;;;;10.24;100.00;100541.50;21002743;28;19920;-67
2022/11/09 19:48:07;;;;;;;9.27;2.40;;;;;;;10.35;100.00;100559.81;21001482;28;20093;-66
2022/11/09 19:58:30;;;;;;;;;;;;;;;10.24;100.00;100567.53;21001706;28;20041;-65
2022/11/09 20:08:52;;;;;;;8.40;2.25;;;;;;;10.33;100.00;100587.78;21006720;28;19924;-66
2022/11/09 20:19:14;;;;;;;5.95;1.90;;;;;;;10.26;100.00;100602.97;20997491;28;20051;-68
2022/11/09 20:29:36;;;;;;;7.40;1.98;;;;;;;10.38;100.00;100616.94;20997152;28;20056;-66
2022/11/09 20:39:58;;;;;;;8.85;1.58;;;;;;;10.34;100.00;100620.69;20978769;28;20040;-66
2022/11/09 20:50:20;;;;;;;;;;;;;;;10.30;100.00;100637.47;21021054;28;20040;-66
2022/11/09 21:00:42;;;;;;;11.63;2.80;;;;;;;10.29;100.00;100664.47;21020478;28;19927;-66
2022/11/09 21:11:05;;;;;;;10.43;1.63;;;;;;;10.30;100.00;100673.97;21013642;28;20271;-67
2022/11/09 21:21:27;;;;;;;13.70;1.98;;;;;;;10.19;100.00;100681.66;21009231;28;20040;-66
2022/11/09 21:31:57;;;;;;;8.45;2.05;;;;;;;10.12;100.00;100703.81;21015641;28;20040;-67
2022/11/09 21:42:19;;;;;;;9.13;1.63;;;;;;;10.09;100.00;100720.47;21004111;28;20044;-66
2022/11/09 21:52:40;;;;;;;;;;;;;;;10.06;100.00;100730.22;21013495;28;20040;-66
2022/11/09 22:03:02;;;;;;;8.23;1.40;;;;;;;9.92;100.00;100738.03;20998411;28;19936;-66
2022/11/09 22:24:05;;;;;;;5.47;1.73;;;;;;;9.81;100.00;100756.97;21013370;28;20040;-66
2022/11/09 22:34:27;;;;;;;7.68;1.85;;;;;;;9.79;100.00;100773.59;21005698;28;20048;-65
2022/11/09 22:44:48;;;;;;;;;;;;;;;9.54;100.00;100779.47;21015283;28;20048;-67
2022/11/09 22:55:10;;;;;;;8.90;1.63;;;;;;;9.55;100.00;100798.53;20998484;28;20445;-66
2022/11/09 23:05:32;;;;;;;6.22;1.60;;;;;;;9.53;100.00;100809.00;21005213;28;20036;-66
2022/11/09 23:15:59;;;;;;;9.77;1.40;;;;;;;9.36;100.00;100820.56;21001770;28;20036;-67
2022/11/09 23:26:22;;;;;;;6.75;1.58;;;;;;;9.27;100.00;100827.13;21002600;28;20048;-66
2022/11/09 23:36:44;;;;;;;5.97;1.38;;;;;;;9.19;100.00;100844.13;21010519;28;20098;-66
2022/11/09 23:47:06;;;;;;;10.73;1.95;;;;;;;9.17;100.00;100869.38;20992962;28;20040;-66
2022/11/09 23:57:27;;;;;;;9.10;1.70;;;;;;;9.06;100.00;100897.75;21003322;28;20040;-66
